sensor_id;sensor_type;location;lat;lon;timestamp;temperature;humidity
7762;DHT22;3925;48.636;9.516;2023-03-12T00:01:32;1.40;99.90
7762;DHT22;3925;48.636;9.516;2023-03-12T00:04:00;1.40;99.90
7762;DHT22;3925;48.636;9.516;2023-03-12T00:06:29;1.30;99.90
7762;DHT22;3925;48.636;9.516;2023-03-12T00:08:56;1.50;99.90
7762;DHT22;3925;48.636;9.516;2023-03-12T00:11:23;1.50;99.90
7762;DHT22;3925;48.636;9.516;2023-03-12T00:13:51;1.20;99.90
7762;DHT22;3925;48.636;9.516;2023-03-12T00:16:19;1.30;99.90
7762;DHT22;3925;48.636;9.516;2023-03-12T00:18:47;1.50;99.90
7762;DHT22;3925;48.636;9.516;2023-03-12T00:21:14;1.50;99.90
7762;DHT22;3925;48.636;9.516;2023-03-12T00:23:43;1.40;99.90
7762;DHT22;3925;48.636;9.516;2023-03-12T00:26:12;1.30;99.90
7762;DHT22;3925;48.636;9.516;2023-03-12T00:28:40;1.20;99.90
7762;DHT22;3925;48.636;9.516;2023-03-12T00:31:13;1.10;99.90
7762;DHT22;3925;48.636;9.516;2023-03-12T00:33:41;1.30;99.90
7762;DHT22;3925;48.636;9.516;2023-03-12T00:36:08;1.50;99.90
7762;DHT22;3925;48.636;9.516;2023-03-12T00:38:35;1.30;99.90
7762;DHT22;3925;48.636;9.516;2023-03-12T00:41:03;1.20;99.90
7762;DHT22;3925;48.636;9.516;2023-03-12T00:43:30;1.10;99.90
7762;DHT22;3925;48.636;9.516;2023-03-12T00:45:57;1.10;99.90
7762;DHT22;3925;48.636;9.516;2023-03-12T00:48:24;1.00;99.90
7762;DHT22;3925;48.636;9.516;2023-03-12T00:50:50;0.90;99.90
7762;DHT22;3925;48.636;9.516;2023-03-12T00:53:17;1.10;99.90
7762;DHT22;3925;48.636;9.516;2023-03-12T00:55:44;1.10;99.90
7762;DHT22;3925;48.636;9.516;2023-03-12T00:58:12;1.10;99.90
7762;DHT22;3925;48.636;9.516;2023-03-12T01:00:39;1.20;99.90
7762;DHT22;3925;48.636;9.516;2023-03-12T01:03:06;1.40;99.90
7762;DHT22;3925;48.636;9.516;2023-03-12T01:05:33;1.60;99.90
7762;DHT22;3925;48.636;9.516;2023-03-12T01:08:03;1.60;99.90
7762;DHT22;3925;48.636;9.516;2023-03-12T01:10:29;1.40;99.90
7762;DHT22;3925;48.636;9.516;2023-03-12T01:12:56;1.40;99.90
7762;DHT22;3925;48.636;9.516;2023-03-12T01:15:25;1.30;99.90
7762;DHT22;3925;48.636;9.516;2023-03-12T01:17:52;1.00;99.90
7762;DHT22;3925;48.636;9.516;2023-03-12T01:20:19;0.90;99.90
7762;DHT22;3925;48.636;9.516;2023-03-12T01:22:47;0.90;99.90
7762;DHT22;3925;48.636;9.516;2023-03-12T01:25:14;0.90;99.90
7762;DHT22;3925;48.636;9.516;2023-03-12T01:27:41;1.00;99.90
7762;DHT22;3925;48.636;9.516;2023-03-12T01:30:10;1.30;99.90
7762;DHT22;3925;48.636;9.516;2023-03-12T01:32:38;1.40;99.90
7762;DHT22;3925;48.636;9.516;2023-03-12T01:35:05;1.20;99.90
7762;DHT22;3925;48.636;9.516;2023-03-12T01:37:32;1.30;99.90
7762;DHT22;3925;48.636;9.516;2023-03-12T01:39:59;1.00;99.90
7762;DHT22;3925;48.636;9.516;2023-03-12T01:42:26;0.90;99.90
7762;DHT22;3925;48.636;9.516;2023-03-12T01:44:55;1.20;99.90
7762;DHT22;3925;48.636;9.516;2023-03-12T01:47:25;1.80;99.90
7762;DHT22;3925;48.636;9.516;2023-03-12T01:49:54;1.80;99.90
7762;DHT22;3925;48.636;9.516;2023-03-12T01:52:24;1.90;99.90
7762;DHT22;3925;48.636;9.516;2023-03-12T01:54:56;2.00;99.90
7762;DHT22;3925;48.636;9.516;2023-03-12T01:57:29;1.60;99.90
7762;DHT22;3925;48.636;9.516;2023-03-12T01:59:59;1.50;99.90
7762;DHT22;3925;48.636;9.516;2023-03-12T02:02:29;1.60;99.90
7762;DHT22;3925;48.636;9.516;2023-03-12T02:05:03;1.60;99.90
7762;DHT22;3925;48.636;9.516;2023-03-12T02:07:33;1.90;99.90
7762;DHT22;3925;48.636;9.516;2023-03-12T02:10:01;1.80;99.90
7762;DHT22;3925;48.636;9.516;2023-03-12T02:12:28;1.70;99.90
7762;DHT22;3925;48.636;9.516;2023-03-12T02:14:55;1.60;99.90
7762;DHT22;3925;48.636;9.516;2023-03-12T02:17:22;1.60;99.90
7762;DHT22;3925;48.636;9.516;2023-03-12T02:19:59;1.60;99.90
7762;DHT22;3925;48.636;9.516;2023-03-12T02:22:34;1.70;99.90
7762;DHT22;3925;48.636;9.516;2023-03-12T02:25:12;1.70;99.90
7762;DHT22;3925;48.636;9.516;2023-03-12T02:27:40;2.00;99.90
7762;DHT22;3925;48.636;9.516;2023-03-12T02:30:08;1.90;99.90
7762;DHT22;3925;48.636;9.516;2023-03-12T02:32:40;1.90;99.90
7762;DHT22;3925;48.636;9.516;2023-03-12T02:35:08;1.80;99.90
7762;DHT22;3925;48.636;9.516;2023-03-12T02:37:35;1.90;99.90
7762;DHT22;3925;48.636;9.516;2023-03-12T02:40:17;1.80;99.90
7762;DHT22;3925;48.636;9.516;2023-03-12T02:42:46;1.80;99.90
7762;DHT22;3925;48.636;9.516;2023-03-12T02:45:13;1.70;99.90
7762;DHT22;3925;48.636;9.516;2023-03-12T02:47:40;1.70;99.90
7762;DHT22;3925;48.636;9.516;2023-03-12T02:50:08;1.70;99.90
7762;DHT22;3925;48.636;9.516;2023-03-12T02:52:35;1.70;99.90
7762;DHT22;3925;48.636;9.516;2023-03-12T02:55:03;1.60;99.90
7762;DHT22;3925;48.636;9.516;2023-03-12T02:57:31;1.60;99.90
7762;DHT22;3925;48.636;9.516;2023-03-12T03:00:03;1.70;99.90
7762;DHT22;3925;48.636;9.516;2023-03-12T03:02:30;1.90;99.90
7762;DHT22;3925;48.636;9.516;2023-03-12T03:04:57;2.10;99.90
7762;DHT22;3925;48.636;9.516;2023-03-12T03:07:24;2.10;99.90
7762;DHT22;3925;48.636;9.516;2023-03-12T03:09:51;2.10;99.90
7762;DHT22;3925;48.636;9.516;2023-03-12T03:12:18;2.00;99.90
7762;DHT22;3925;48.636;9.516;2023-03-12T03:14:46;2.20;99.90
7762;DHT22;3925;48.636;9.516;2023-03-12T03:17:13;2.00;99.90
7762;DHT22;3925;48.636;9.516;2023-03-12T03:19:40;2.00;99.90
7762;DHT22;3925;48.636;9.516;2023-03-12T03:22:07;2.00;99.90
7762;DHT22;3925;48.636;9.516;2023-03-12T03:24:34;2.20;99.90
7762;DHT22;3925;48.636;9.516;2023-03-12T03:27:01;2.20;99.90
7762;DHT22;3925;48.636;9.516;2023-03-12T03:29:28;2.10;99.90
7762;DHT22;3925;48.636;9.516;2023-03-12T03:31:56;2.30;99.90
7762;DHT22;3925;48.636;9.516;2023-03-12T03:34:23;2.40;99.90
7762;DHT22;3925;48.636;9.516;2023-03-12T03:36:50;2.40;99.90
7762;DHT22;3925;48.636;9.516;2023-03-12T03:39:17;2.20;99.90
7762;DHT22;3925;48.636;9.516;2023-03-12T03:41:44;2.20;99.90
7762;DHT22;3925;48.636;9.516;2023-03-12T03:44:12;1.80;99.90
7762;DHT22;3925;48.636;9.516;2023-03-12T03:46:39;1.70;99.90
7762;DHT22;3925;48.636;9.516;2023-03-12T03:49:07;1.50;99.90
7762;DHT22;3925;48.636;9.516;2023-03-12T03:51:34;1.80;99.90
7762;DHT22;3925;48.636;9.516;2023-03-12T03:54:00;1.50;99.90
7762;DHT22;3925;48.636;9.516;2023-03-12T03:56:27;1.70;99.90
7762;DHT22;3925;48.636;9.516;2023-03-12T03:58:54;1.90;99.90
7762;DHT22;3925;48.636;9.516;2023-03-12T04:01:21;2.20;99.90
7762;DHT22;3925;48.636;9.516;2023-03-12T04:03:48;2.40;99.90
7762;DHT22;3925;48.636;9.516;2023-03-12T04:06:16;2.10;99.90
7762;DHT22;3925;48.636;9.516;2023-03-12T04:08:43;1.80;99.90
7762;DHT22;3925;48.636;9.516;2023-03-12T04:11:12;1.70;99.90
7762;DHT22;3925;48.636;9.516;2023-03-12T04:13:39;1.70;99.90
7762;DHT22;3925;48.636;9.516;2023-03-12T04:16:07;1.80;99.90
7762;DHT22;3925;48.636;9.516;2023-03-12T04:18:34;2.00;99.90
7762;DHT22;3925;48.636;9.516;2023-03-12T04:21:02;2.00;99.90
7762;DHT22;3925;48.636;9.516;2023-03-12T04:23:30;2.20;99.90
7762;DHT22;3925;48.636;9.516;2023-03-12T04:25:57;2.20;99.90
7762;DHT22;3925;48.636;9.516;2023-03-12T04:28:24;2.00;99.90
7762;DHT22;3925;48.636;9.516;2023-03-12T04:30:54;2.10;99.90
7762;DHT22;3925;48.636;9.516;2023-03-12T04:33:24;2.30;99.90
7762;DHT22;3925;48.636;9.516;2023-03-12T04:35:51;2.40;99.90
7762;DHT22;3925;48.636;9.516;2023-03-12T04:38:19;2.50;99.90
7762;DHT22;3925;48.636;9.516;2023-03-12T04:40:56;2.00;99.90
7762;DHT22;3925;48.636;9.516;2023-03-12T04:43:23;2.00;99.90
7762;DHT22;3925;48.636;9.516;2023-03-12T04:45:50;2.40;99.90
7762;DHT22;3925;48.636;9.516;2023-03-12T04:48:17;2.40;99.90
7762;DHT22;3925;48.636;9.516;2023-03-12T04:50:44;2.50;99.90
7762;DHT22;3925;48.636;9.516;2023-03-12T04:53:11;2.20;99.90
7762;DHT22;3925;48.636;9.516;2023-03-12T04:55:37;2.00;99.90
7762;DHT22;3925;48.636;9.516;2023-03-12T04:58:06;2.30;99.90
7762;DHT22;3925;48.636;9.516;2023-03-12T05:00:32;2.50;99.90
7762;DHT22;3925;48.636;9.516;2023-03-12T05:02:59;2.60;99.90
7762;DHT22;3925;48.636;9.516;2023-03-12T05:05:29;2.50;99.90
7762;DHT22;3925;48.636;9.516;2023-03-12T05:07:55;2.50;99.90
7762;DHT22;3925;48.636;9.516;2023-03-12T05:10:23;2.50;99.90
7762;DHT22;3925;48.636;9.516;2023-03-12T05:12:50;2.40;99.90
7762;DHT22;3925;48.636;9.516;2023-03-12T05:15:18;2.00;99.90
7762;DHT22;3925;48.636;9.516;2023-03-12T05:17:45;1.60;99.90
7762;DHT22;3925;48.636;9.516;2023-03-12T05:20:12;1.40;99.90
7762;DHT22;3925;48.636;9.516;2023-03-12T05:22:39;1.30;99.90
7762;DHT22;3925;48.636;9.516;2023-03-12T05:25:07;1.20;99.90
7762;DHT22;3925;48.636;9.516;2023-03-12T05:27:34;1.30;99.90
7762;DHT22;3925;48.636;9.516;2023-03-12T05:30:02;1.20;99.90
7762;DHT22;3925;48.636;9.516;2023-03-12T05:32:31;1.50;99.90
7762;DHT22;3925;48.636;9.516;2023-03-12T05:34:57;1.60;99.90
7762;DHT22;3925;48.636;9.516;2023-03-12T05:37:24;1.90;99.90
7762;DHT22;3925;48.636;9.516;2023-03-12T05:39:53;1.50;99.90
7762;DHT22;3925;48.636;9.516;2023-03-12T05:42:20;1.50;99.90
7762;DHT22;3925;48.636;9.516;2023-03-12T05:44:47;1.80;99.90
7762;DHT22;3925;48.636;9.516;2023-03-12T05:47:13;1.90;99.90
7762;DHT22;3925;48.636;9.516;2023-03-12T05:49:42;2.10;99.90
7762;DHT22;3925;48.636;9.516;2023-03-12T05:52:10;2.10;99.90
7762;DHT22;3925;48.636;9.516;2023-03-12T05:54:37;2.10;99.90
7762;DHT22;3925;48.636;9.516;2023-03-12T05:57:04;2.00;99.90
7762;DHT22;3925;48.636;9.516;2023-03-12T05:59:31;2.20;99.90
7762;DHT22;3925;48.636;9.516;2023-03-12T06:01:58;2.40;99.90
7762;DHT22;3925;48.636;9.516;2023-03-12T06:04:24;2.50;99.90
7762;DHT22;3925;48.636;9.516;2023-03-12T06:06:53;2.40;99.90
7762;DHT22;3925;48.636;9.516;2023-03-12T06:09:19;2.60;99.90
7762;DHT22;3925;48.636;9.516;2023-03-12T06:11:46;2.60;99.90
7762;DHT22;3925;48.636;9.516;2023-03-12T06:14:13;2.60;99.90
7762;DHT22;3925;48.636;9.516;2023-03-12T06:16:40;2.50;99.90
7762;DHT22;3925;48.636;9.516;2023-03-12T06:19:07;2.70;99.90
7762;DHT22;3925;48.636;9.516;2023-03-12T06:21:38;2.80;99.90
7762;DHT22;3925;48.636;9.516;2023-03-12T06:24:07;2.50;99.90
7762;DHT22;3925;48.636;9.516;2023-03-12T06:26:34;1.90;99.90
7762;DHT22;3925;48.636;9.516;2023-03-12T06:29:01;1.90;99.90
7762;DHT22;3925;48.636;9.516;2023-03-12T06:31:28;1.60;99.90
7762;DHT22;3925;48.636;9.516;2023-03-12T06:33:55;1.80;99.90
7762;DHT22;3925;48.636;9.516;2023-03-12T06:36:21;1.60;99.90
7762;DHT22;3925;48.636;9.516;2023-03-12T06:38:49;1.50;99.90
7762;DHT22;3925;48.636;9.516;2023-03-12T06:41:18;1.60;99.90
7762;DHT22;3925;48.636;9.516;2023-03-12T06:43:46;1.60;99.90
7762;DHT22;3925;48.636;9.516;2023-03-12T06:46:15;2.00;99.90
7762;DHT22;3925;48.636;9.516;2023-03-12T06:48:42;1.90;99.90
7762;DHT22;3925;48.636;9.516;2023-03-12T06:51:12;1.80;99.90
7762;DHT22;3925;48.636;9.516;2023-03-12T06:53:39;1.80;99.90
7762;DHT22;3925;48.636;9.516;2023-03-12T06:56:06;1.90;99.90
7762;DHT22;3925;48.636;9.516;2023-03-12T06:58:35;2.00;99.90
7762;DHT22;3925;48.636;9.516;2023-03-12T07:01:02;2.10;99.90
7762;DHT22;3925;48.636;9.516;2023-03-12T07:03:29;2.40;99.90
7762;DHT22;3925;48.636;9.516;2023-03-12T07:05:56;2.40;99.90
7762;DHT22;3925;48.636;9.516;2023-03-12T07:08:24;2.30;99.90
7762;DHT22;3925;48.636;9.516;2023-03-12T07:10:51;2.60;99.90
7762;DHT22;3925;48.636;9.516;2023-03-12T07:13:18;2.80;99.90
7762;DHT22;3925;48.636;9.516;2023-03-12T07:15:46;2.80;99.90
7762;DHT22;3925;48.636;9.516;2023-03-12T07:18:13;2.80;99.90
7762;DHT22;3925;48.636;9.516;2023-03-12T07:20:42;2.80;99.90
7762;DHT22;3925;48.636;9.516;2023-03-12T07:23:09;2.90;99.90
7762;DHT22;3925;48.636;9.516;2023-03-12T07:25:37;2.90;99.90
7762;DHT22;3925;48.636;9.516;2023-03-12T07:28:05;3.10;99.90
7762;DHT22;3925;48.636;9.516;2023-03-12T07:30:32;3.00;99.90
7762;DHT22;3925;48.636;9.516;2023-03-12T07:33:01;2.80;99.90
7762;DHT22;3925;48.636;9.516;2023-03-12T07:35:28;2.90;99.90
7762;DHT22;3925;48.636;9.516;2023-03-12T07:37:56;2.80;99.90
7762;DHT22;3925;48.636;9.516;2023-03-12T07:40:23;2.70;99.90
7762;DHT22;3925;48.636;9.516;2023-03-12T07:42:51;3.00;99.90
7762;DHT22;3925;48.636;9.516;2023-03-12T07:45:18;3.40;99.90
7762;DHT22;3925;48.636;9.516;2023-03-12T07:47:45;3.70;99.90
7762;DHT22;3925;48.636;9.516;2023-03-12T07:50:14;4.00;99.90
7762;DHT22;3925;48.636;9.516;2023-03-12T07:52:41;4.10;99.90
7762;DHT22;3925;48.636;9.516;2023-03-12T07:55:09;4.10;99.90
7762;DHT22;3925;48.636;9.516;2023-03-12T07:57:36;4.00;99.90
7762;DHT22;3925;48.636;9.516;2023-03-12T08:00:04;3.90;99.90
7762;DHT22;3925;48.636;9.516;2023-03-12T08:02:33;3.60;99.90
7762;DHT22;3925;48.636;9.516;2023-03-12T08:05:00;3.60;99.90
7762;DHT22;3925;48.636;9.516;2023-03-12T08:07:29;3.70;99.90
7762;DHT22;3925;48.636;9.516;2023-03-12T08:09:57;4.10;99.90
7762;DHT22;3925;48.636;9.516;2023-03-12T08:12:23;4.10;99.90
7762;DHT22;3925;48.636;9.516;2023-03-12T08:14:50;4.30;99.90
7762;DHT22;3925;48.636;9.516;2023-03-12T08:17:17;4.20;99.90
7762;DHT22;3925;48.636;9.516;2023-03-12T08:19:44;4.30;99.90
7762;DHT22;3925;48.636;9.516;2023-03-12T08:22:11;4.30;99.90
7762;DHT22;3925;48.636;9.516;2023-03-12T08:24:40;4.60;99.90
7762;DHT22;3925;48.636;9.516;2023-03-12T08:27:07;4.50;99.90
7762;DHT22;3925;48.636;9.516;2023-03-12T08:29:33;4.70;99.90
7762;DHT22;3925;48.636;9.516;2023-03-12T08:32:00;5.00;99.90
7762;DHT22;3925;48.636;9.516;2023-03-12T08:34:27;4.90;99.90
7762;DHT22;3925;48.636;9.516;2023-03-12T08:36:54;5.00;99.90
7762;DHT22;3925;48.636;9.516;2023-03-12T08:39:21;5.30;99.90
7762;DHT22;3925;48.636;9.516;2023-03-12T08:41:49;5.60;99.90
7762;DHT22;3925;48.636;9.516;2023-03-12T08:44:19;5.90;99.90
7762;DHT22;3925;48.636;9.516;2023-03-12T08:46:46;6.20;99.90
7762;DHT22;3925;48.636;9.516;2023-03-12T08:49:13;6.40;99.90
7762;DHT22;3925;48.636;9.516;2023-03-12T08:51:40;6.40;99.90
7762;DHT22;3925;48.636;9.516;2023-03-12T08:54:07;6.30;99.90
7762;DHT22;3925;48.636;9.516;2023-03-12T08:56:34;6.20;99.90
7762;DHT22;3925;48.636;9.516;2023-03-12T08:59:03;6.10;99.90
7762;DHT22;3925;48.636;9.516;2023-03-12T09:01:29;6.10;99.90
7762;DHT22;3925;48.636;9.516;2023-03-12T09:03:56;5.80;99.90
7762;DHT22;3925;48.636;9.516;2023-03-12T09:06:23;5.80;99.90
7762;DHT22;3925;48.636;9.516;2023-03-12T09:08:50;5.90;99.90
7762;DHT22;3925;48.636;9.516;2023-03-12T09:11:17;5.90;99.90
7762;DHT22;3925;48.636;9.516;2023-03-12T09:13:44;5.60;99.90
7762;DHT22;3925;48.636;9.516;2023-03-12T09:16:12;5.60;99.90
7762;DHT22;3925;48.636;9.516;2023-03-12T09:18:39;5.80;99.90
7762;DHT22;3925;48.636;9.516;2023-03-12T09:21:06;6.30;99.90
7762;DHT22;3925;48.636;9.516;2023-03-12T09:23:33;6.50;99.90
7762;DHT22;3925;48.636;9.516;2023-03-12T09:26:00;6.50;99.90
7762;DHT22;3925;48.636;9.516;2023-03-12T09:28:27;6.80;99.90
7762;DHT22;3925;48.636;9.516;2023-03-12T09:30:53;6.80;99.90
7762;DHT22;3925;48.636;9.516;2023-03-12T09:33:22;7.30;99.90
7762;DHT22;3925;48.636;9.516;2023-03-12T09:35:55;7.70;99.90
7762;DHT22;3925;48.636;9.516;2023-03-12T09:38:23;7.90;99.90
7762;DHT22;3925;48.636;9.516;2023-03-12T09:40:50;8.00;99.90
7762;DHT22;3925;48.636;9.516;2023-03-12T09:43:21;7.80;99.90
7762;DHT22;3925;48.636;9.516;2023-03-12T09:45:51;7.70;99.90
7762;DHT22;3925;48.636;9.516;2023-03-12T09:48:25;8.00;99.90
7762;DHT22;3925;48.636;9.516;2023-03-12T09:50:53;8.10;99.90
7762;DHT22;3925;48.636;9.516;2023-03-12T09:53:26;8.40;99.90
7762;DHT22;3925;48.636;9.516;2023-03-12T09:55:55;8.40;99.90
7762;DHT22;3925;48.636;9.516;2023-03-12T09:58:26;8.60;99.90
7762;DHT22;3925;48.636;9.516;2023-03-12T10:00:59;8.70;99.90
7762;DHT22;3925;48.636;9.516;2023-03-12T10:03:46;8.60;99.90
7762;DHT22;3925;48.636;9.516;2023-03-12T10:06:19;8.80;99.90
7762;DHT22;3925;48.636;9.516;2023-03-12T10:08:55;9.00;99.90
7762;DHT22;3925;48.636;9.516;2023-03-12T10:11:34;9.10;99.90
7762;DHT22;3925;48.636;9.516;2023-03-12T10:17:10;9.30;99.90
7762;DHT22;3925;48.636;9.516;2023-03-12T10:19:55;9.30;99.90
7762;DHT22;3925;48.636;9.516;2023-03-12T10:22:32;9.70;99.90
7762;DHT22;3925;48.636;9.516;2023-03-12T10:25:10;9.70;99.90
7762;DHT22;3925;48.636;9.516;2023-03-12T10:27:39;9.60;99.90
7762;DHT22;3925;48.636;9.516;2023-03-12T10:30:15;9.70;99.90
7762;DHT22;3925;48.636;9.516;2023-03-12T10:32:45;9.90;99.90
7762;DHT22;3925;48.636;9.516;2023-03-12T10:35:17;9.90;99.90
7762;DHT22;3925;48.636;9.516;2023-03-12T10:37:47;10.10;99.90
7762;DHT22;3925;48.636;9.516;2023-03-12T10:40:16;10.10;99.90
7762;DHT22;3925;48.636;9.516;2023-03-12T10:42:44;9.90;99.90
7762;DHT22;3925;48.636;9.516;2023-03-12T10:45:19;10.40;99.90
7762;DHT22;3925;48.636;9.516;2023-03-12T10:47:50;10.80;99.90
7762;DHT22;3925;48.636;9.516;2023-03-12T10:50:20;11.50;99.90
7762;DHT22;3925;48.636;9.516;2023-03-12T10:52:49;11.50;99.90
7762;DHT22;3925;48.636;9.516;2023-03-12T10:55:22;11.60;99.90
7762;DHT22;3925;48.636;9.516;2023-03-12T10:57:51;11.50;99.90
7762;DHT22;3925;48.636;9.516;2023-03-12T11:00:20;11.40;99.90
7762;DHT22;3925;48.636;9.516;2023-03-12T11:02:56;11.30;99.90
7762;DHT22;3925;48.636;9.516;2023-03-12T11:05:28;11.20;99.90
7762;DHT22;3925;48.636;9.516;2023-03-12T11:07:56;11.30;99.90
7762;DHT22;3925;48.636;9.516;2023-03-12T11:10:26;11.40;99.90
7762;DHT22;3925;48.636;9.516;2023-03-12T11:13:04;11.40;99.90
7762;DHT22;3925;48.636;9.516;2023-03-12T11:15:38;11.50;99.90
7762;DHT22;3925;48.636;9.516;2023-03-12T11:18:27;11.30;99.90
7762;DHT22;3925;48.636;9.516;2023-03-12T11:20:57;11.40;99.90
7762;DHT22;3925;48.636;9.516;2023-03-12T11:23:38;11.50;99.90
7762;DHT22;3925;48.636;9.516;2023-03-12T11:26:12;11.60;99.90
7762;DHT22;3925;48.636;9.516;2023-03-12T11:28:42;12.00;99.90
7762;DHT22;3925;48.636;9.516;2023-03-12T11:31:20;12.20;99.90
7762;DHT22;3925;48.636;9.516;2023-03-12T11:33:48;12.30;99.90
7762;DHT22;3925;48.636;9.516;2023-03-12T11:36:38;12.20;99.90
7762;DHT22;3925;48.636;9.516;2023-03-12T11:39:17;12.00;99.90
7762;DHT22;3925;48.636;9.516;2023-03-12T11:42:04;11.80;99.90
7762;DHT22;3925;48.636;9.516;2023-03-12T11:44:39;11.80;99.90
7762;DHT22;3925;48.636;9.516;2023-03-12T11:47:26;11.80;99.90
7762;DHT22;3925;48.636;9.516;2023-03-12T11:50:06;11.90;99.90
7762;DHT22;3925;48.636;9.516;2023-03-12T11:52:47;12.10;99.90
7762;DHT22;3925;48.636;9.516;2023-03-12T11:58:29;12.20;99.90
7762;DHT22;3925;48.636;9.516;2023-03-12T12:01:05;11.80;99.90
7762;DHT22;3925;48.636;9.516;2023-03-12T12:04:12;11.80;99.90
7762;DHT22;3925;48.636;9.516;2023-03-12T12:06:55;11.80;99.90
7762;DHT22;3925;48.636;9.516;2023-03-12T12:09:31;11.80;99.90
7762;DHT22;3925;48.636;9.516;2023-03-12T12:12:13;12.00;99.90
7762;DHT22;3925;48.636;9.516;2023-03-12T12:15:01;12.00;99.90
7762;DHT22;3925;48.636;9.516;2023-03-12T12:17:41;12.00;99.90
7762;DHT22;3925;48.636;9.516;2023-03-12T12:20:20;11.80;99.90
7762;DHT22;3925;48.636;9.516;2023-03-12T12:23:04;11.80;99.90
7762;DHT22;3925;48.636;9.516;2023-03-12T12:31:25;12.20;99.90
7762;DHT22;3925;48.636;9.516;2023-03-12T12:34:08;12.20;99.90
7762;DHT22;3925;48.636;9.516;2023-03-12T12:36:37;12.20;99.90
7762;DHT22;3925;48.636;9.516;2023-03-12T12:39:10;12.30;99.90
7762;DHT22;3925;48.636;9.516;2023-03-12T12:41:44;12.30;99.90
7762;DHT22;3925;48.636;9.516;2023-03-12T12:44:14;12.20;99.90
7762;DHT22;3925;48.636;9.516;2023-03-12T12:46:46;12.20;99.90
7762;DHT22;3925;48.636;9.516;2023-03-12T12:49:20;12.30;99.90
7762;DHT22;3925;48.636;9.516;2023-03-12T12:51:50;12.30;99.90
7762;DHT22;3925;48.636;9.516;2023-03-12T12:54:25;12.40;99.90
7762;DHT22;3925;48.636;9.516;2023-03-12T12:56:59;12.60;99.90
7762;DHT22;3925;48.636;9.516;2023-03-12T12:59:33;12.50;99.90
7762;DHT22;3925;48.636;9.516;2023-03-12T13:02:10;12.50;99.90
7762;DHT22;3925;48.636;9.516;2023-03-12T13:04:42;12.60;99.90
7762;DHT22;3925;48.636;9.516;2023-03-12T13:07:33;12.80;99.90
7762;DHT22;3925;48.636;9.516;2023-03-12T13:10:04;12.70;99.90
7762;DHT22;3925;48.636;9.516;2023-03-12T13:12:35;12.60;99.90
7762;DHT22;3925;48.636;9.516;2023-03-12T13:15:32;12.50;99.90
7762;DHT22;3925;48.636;9.516;2023-03-12T13:18:02;12.50;99.90
7762;DHT22;3925;48.636;9.516;2023-03-12T13:20:34;12.30;99.90
7762;DHT22;3925;48.636;9.516;2023-03-12T13:23:15;12.40;99.90
7762;DHT22;3925;48.636;9.516;2023-03-12T13:25:52;12.40;99.90
7762;DHT22;3925;48.636;9.516;2023-03-12T13:28:30;12.30;99.90
7762;DHT22;3925;48.636;9.516;2023-03-12T13:31:00;12.40;99.90
7762;DHT22;3925;48.636;9.516;2023-03-12T13:33:40;12.30;99.90
7762;DHT22;3925;48.636;9.516;2023-03-12T13:36:27;12.20;99.90
7762;DHT22;3925;48.636;9.516;2023-03-12T13:38:57;12.10;99.90
7762;DHT22;3925;48.636;9.516;2023-03-12T13:41:33;12.10;99.90
7762;DHT22;3925;48.636;9.516;2023-03-12T13:44:22;12.10;99.90
7762;DHT22;3925;48.636;9.516;2023-03-12T13:46:57;12.10;99.90
7762;DHT22;3925;48.636;9.516;2023-03-12T13:49:26;12.00;99.90
7762;DHT22;3925;48.636;9.516;2023-03-12T13:51:59;12.00;99.90
7762;DHT22;3925;48.636;9.516;2023-03-12T13:54:30;12.10;99.90
7762;DHT22;3925;48.636;9.516;2023-03-12T13:57:01;12.20;99.90
7762;DHT22;3925;48.636;9.516;2023-03-12T13:59:30;12.30;99.90
7762;DHT22;3925;48.636;9.516;2023-03-12T14:02:02;12.20;99.90
7762;DHT22;3925;48.636;9.516;2023-03-12T14:04:34;12.10;99.90
7762;DHT22;3925;48.636;9.516;2023-03-12T14:07:24;12.10;99.90
7762;DHT22;3925;48.636;9.516;2023-03-12T14:10:00;12.00;99.90
7762;DHT22;3925;48.636;9.516;2023-03-12T14:12:36;12.00;99.90
7762;DHT22;3925;48.636;9.516;2023-03-12T14:15:20;12.10;99.90
7762;DHT22;3925;48.636;9.516;2023-03-12T14:17:55;12.10;99.90
7762;DHT22;3925;48.636;9.516;2023-03-12T14:20:23;12.10;99.90
7762;DHT22;3925;48.636;9.516;2023-03-12T14:22:53;12.00;99.90
7762;DHT22;3925;48.636;9.516;2023-03-12T14:25:30;12.00;99.90
7762;DHT22;3925;48.636;9.516;2023-03-12T14:27:57;12.10;99.90
7762;DHT22;3925;48.636;9.516;2023-03-12T14:30:33;12.10;99.90
7762;DHT22;3925;48.636;9.516;2023-03-12T14:33:02;12.20;99.90
7762;DHT22;3925;48.636;9.516;2023-03-12T14:35:33;12.30;99.90
7762;DHT22;3925;48.636;9.516;2023-03-12T14:38:04;12.40;99.90
7762;DHT22;3925;48.636;9.516;2023-03-12T14:40:37;12.40;99.90
7762;DHT22;3925;48.636;9.516;2023-03-12T14:43:24;12.50;99.90
7762;DHT22;3925;48.636;9.516;2023-03-12T14:45:55;12.40;99.90
7762;DHT22;3925;48.636;9.516;2023-03-12T14:48:25;12.50;99.90
7762;DHT22;3925;48.636;9.516;2023-03-12T14:50:54;12.70;99.90
7762;DHT22;3925;48.636;9.516;2023-03-12T14:53:24;12.70;99.90
7762;DHT22;3925;48.636;9.516;2023-03-12T14:56:02;12.80;99.90
7762;DHT22;3925;48.636;9.516;2023-03-12T14:58:29;12.70;99.90
7762;DHT22;3925;48.636;9.516;2023-03-12T15:01:00;12.70;99.90
7762;DHT22;3925;48.636;9.516;2023-03-12T15:03:28;12.70;99.90
7762;DHT22;3925;48.636;9.516;2023-03-12T15:05:56;12.50;99.90
7762;DHT22;3925;48.636;9.516;2023-03-12T15:08:24;12.50;99.90
7762;DHT22;3925;48.636;9.516;2023-03-12T15:10:53;12.60;99.90
7762;DHT22;3925;48.636;9.516;2023-03-12T15:13:22;12.70;99.90
7762;DHT22;3925;48.636;9.516;2023-03-12T15:15:51;12.60;99.90
7762;DHT22;3925;48.636;9.516;2023-03-12T15:18:23;12.70;99.90
7762;DHT22;3925;48.636;9.516;2023-03-12T15:20:51;12.50;99.90
7762;DHT22;3925;48.636;9.516;2023-03-12T15:23:20;12.40;99.90
7762;DHT22;3925;48.636;9.516;2023-03-12T15:25:48;12.50;99.90
7762;DHT22;3925;48.636;9.516;2023-03-12T15:28:33;12.40;99.90
7762;DHT22;3925;48.636;9.516;2023-03-12T15:31:06;12.40;99.90
7762;DHT22;3925;48.636;9.516;2023-03-12T15:33:35;12.40;99.90
7762;DHT22;3925;48.636;9.516;2023-03-12T15:36:04;12.20;99.90
7762;DHT22;3925;48.636;9.516;2023-03-12T15:38:33;12.30;99.90
7762;DHT22;3925;48.636;9.516;2023-03-12T15:41:05;12.10;99.90
7762;DHT22;3925;48.636;9.516;2023-03-12T15:43:33;11.90;99.90
7762;DHT22;3925;48.636;9.516;2023-03-12T15:46:03;11.80;99.90
7762;DHT22;3925;48.636;9.516;2023-03-12T15:48:32;11.80;99.90
7762;DHT22;3925;48.636;9.516;2023-03-12T15:51:01;11.70;99.90
7762;DHT22;3925;48.636;9.516;2023-03-12T15:53:31;11.80;99.90
7762;DHT22;3925;48.636;9.516;2023-03-12T15:56:04;11.70;99.90
7762;DHT22;3925;48.636;9.516;2023-03-12T15:58:33;11.70;99.90
7762;DHT22;3925;48.636;9.516;2023-03-12T16:01:09;11.60;99.90
7762;DHT22;3925;48.636;9.516;2023-03-12T16:03:36;11.70;99.90
7762;DHT22;3925;48.636;9.516;2023-03-12T16:06:08;11.60;99.90
7762;DHT22;3925;48.636;9.516;2023-03-12T16:08:38;11.60;99.90
7762;DHT22;3925;48.636;9.516;2023-03-12T16:11:14;11.60;99.90
7762;DHT22;3925;48.636;9.516;2023-03-12T16:13:42;11.60;99.90
7762;DHT22;3925;48.636;9.516;2023-03-12T16:16:12;11.60;99.90
7762;DHT22;3925;48.636;9.516;2023-03-12T16:18:40;11.50;99.90
7762;DHT22;3925;48.636;9.516;2023-03-12T16:21:08;11.50;99.90
7762;DHT22;3925;48.636;9.516;2023-03-12T16:23:36;11.40;99.90
7762;DHT22;3925;48.636;9.516;2023-03-12T16:26:04;11.40;99.90
7762;DHT22;3925;48.636;9.516;2023-03-12T16:28:33;11.40;99.90
7762;DHT22;3925;48.636;9.516;2023-03-12T16:31:00;11.40;99.90
7762;DHT22;3925;48.636;9.516;2023-03-12T16:33:27;11.40;99.90
7762;DHT22;3925;48.636;9.516;2023-03-12T16:35:54;11.40;99.90
7762;DHT22;3925;48.636;9.516;2023-03-12T16:38:22;11.40;99.90
7762;DHT22;3925;48.636;9.516;2023-03-12T16:40:50;11.40;99.90
7762;DHT22;3925;48.636;9.516;2023-03-12T16:43:18;11.40;99.90